โซล, ประเทศเกาหลีใต้

01:51 AM KST วัน สิงหาคม 30, 2015 (GMT +0900)
Incheon International | | Change Station
CLOSE
Current Station
Airport
Location: Incheon,
Elevation: 23 ft
Nearby Weather Stations

Elev 23 ft 37.47 °N, 126.45 °E | Updated 21 minutes ago

Partly Cloudy
มีเมฆคลุมเป็นส่วนๆ
72 ฟาเรนไฮน์
Feels Like 72 ฟาเรนไฮน์
N
1
ลม ความผันแปร ลม from ทางทิศตะวันออก

วันนี้
High -- | Low -- ฟาเรนไฮน์
--% Chance of Precip.
Yesterday
High -- | Low -- ฟาเรนไฮน์
Precip. -- นิ้ว
6:00 AM 7:05 PM
พระจันทร์เต็มดวง, 100% visible
ความดัน 29.80 นิ้ว
ทัศนวิสัย 6.2 ไมล์
เมฆ Few 3000 ft
อุณหภูมิที่อากาศอาจจับตัวเป็นหยาดน้ำค้าง 64 ฟาเรนไฮน์
ความชื้น 78%
Rainfall 0.00 นิ้ว
Snow Depth Not available.
UV 0 out of 12
Pollen Not available.
Air Quality Not available.
Flu Activity Not available.
METAR RKSI 291630Z 09001KT 9999 FEW030 22/18 Q1009 NOSIG
ความดัน 29.80 นิ้ว
ทัศนวิสัย 6.2 ไมล์
เมฆ Few 3000 ft
อุณหภูมิที่อากาศอาจจับตัวเป็นหยาดน้ำค้าง 64 ฟาเรนไฮน์
ความชื้น 78%
Rainfall 0.00 นิ้ว
Snow Depth Not available.
UV 0 out of 12
Pollen Not available.
Air Quality Not available.
Flu Activity Not available.
METAR RKSI 291630Z 09001KT 9999 FEW030 22/18 Q1009 NOSIG

10-Day Weather Forecast

×

Almanac

ดาราศาสตร์

Aug. 30, 2015 Rise Set
Actual Time
Civil Twilight
Nautical Twilight
Astronomical Twilight
Moon
Length Of Visible Light
ความยาวของวัน
Tomorrow will be .
, % of the Moon is Illuminated

Today's Extremes

Country Highs Country Lows

Community

WunderPhotos

Upload Photos

1,850,722 photos uploaded!

WunderBlogs® & News

Nearby

Air Quality

  Air Quality AQ Index Pollutant
Not available.

Snow Depth

Station Depth Elevation

Earthquake Activity

City Distance Mag. Time & Date
Minimum magnitude displayed is 2.5.

Coastal Water Temperatures

สถานที่ อุณหภูมิ

Stations

Nearby Weather Stations

Station Location Temp ลมหนาว อุณหภูมิที่อากาศอาจจับตัวเป็นหยาดน้ำค้าง ความชื้น ลม Precip. Elev ปรับปรุงล่าสุด Type